Paramaribo, Suriname

10:55 PM SRT op 22 november 2014 (GMT -0300)
Tammenga | Change Station
CLOSE
Current Station
Persoonlijk weerstation
Location: Paramaribo, PARAMARIBO
Geometrische hoogte: 7 ft
Nabije weerstations

Hoogte 7 ft 5.82 °N, 55.22 °W | Updated 4 minutes ago

Partly Cloudy
Gedeeltelijk bewolkt
78.4 °F
Voelt als 81 °F
N
2.0
Wind Variabel Wind van oost
Gusts 4.0 mijl/u

Vandaag
Hoog -- | Laag -- °F
--% Kans op neerslag
Gisteren
Hoog -- | Laag -- °F
Precip. -- inches
6:31 AM 6:21 PM
Nieuwe maan, 0% visible
Druk 29.89 inches
Zicht 6.2 mijlen
Wolken Gering 3500 ft
Warmteindex 81 °F
Dauwpunt 73 °F
Vochtigheid 82%
Neerslag 0.05 inches
Dikte sneeuw Niet beschikbaar.
UV 0 van de 12
Pollen Niet beschikbaar.
Luchtkwaliteit Niet beschikbaar.
Flu Activity Niet beschikbaar.
METAR SMJP 230100Z 06005KT 030V090 9999 FEW035 25/24 Q1012 NOSIG

More Conditions Fewer Conditions

Druk 29.89 inches
Zicht 6.2 mijlen
Wolken Gering 3500 ft
Warmteindex 81 °F
Dauwpunt 73 °F
Vochtigheid 82%
Neerslag 0.05 inches
Dikte sneeuw Niet beschikbaar.
UV 0 van de 12
Pollen Niet beschikbaar.
Luchtkwaliteit Niet beschikbaar.
Flu Activity Niet beschikbaar.
METAR SMJP 230100Z 06005KT 030V090 9999 FEW035 25/24 Q1012 NOSIG

More Conditions Fewer Conditions

10-Day Weather Forecast

Almanac

Astronomie

Nov. 22, 2014 Opkomst Ondergang
Werkelijke tijd
Burgerlijke schemering
Nautische schemering
Astronomische schemering
Maan
Golflengte van het zichtbare licht
Daglengte
Tomorrow will be .
, % of the Moon is Illuminated

Extremen vandaag

Country Highs Country Lows

Community

WunderPhotos

Upload Photos

1,772,964 foto’s ge-upload!

WunderBlogs® & News

Nearby

Luchtkwaliteit

  Luchtkwaliteit LK-index Verontreinigende stof
Not available.

Dikte sneeuw

Station Depth Geometrische hoogte

Aardbevingen

Stad Distance Mag. Time & Date
Minimum magnitude displayed is 2.5.

Watertemperatuur langs de kust

Plaats Temperatuur

Nabije weerstations